createdAt,value
2018-06-07T00:01:40.637Z,15.90
2018-06-07T00:04:08.833Z,15.90
2018-06-07T00:06:36.976Z,15.90
2018-06-07T00:09:06.827Z,15.90
2018-06-07T00:11:34.985Z,15.90
2018-06-07T00:14:03.163Z,15.90
2018-06-07T00:16:31.310Z,15.90
2018-06-07T00:18:59.545Z,15.90
2018-06-07T00:21:27.781Z,15.90
2018-06-07T00:23:55.961Z,15.80
2018-06-07T00:26:24.149Z,15.90
2018-06-07T00:28:52.293Z,15.80
2018-06-07T00:31:21.506Z,15.70
2018-06-07T00:33:49.690Z,15.80
2018-06-07T00:36:17.857Z,15.70
2018-06-07T00:38:47.058Z,15.60
2018-06-07T00:41:16.576Z,15.50
2018-06-07T00:46:12.801Z,15.20
2018-06-07T00:48:40.979Z,15.00
2018-06-07T00:51:09.155Z,14.90
2018-06-07T00:53:37.317Z,14.80
2018-06-07T00:56:05.501Z,14.80
2018-06-07T00:58:33.666Z,14.70
2018-06-07T01:01:01.838Z,14.70
2018-06-07T01:03:29.944Z,14.60
2018-06-07T01:05:58.090Z,14.60
2018-06-07T01:08:26.262Z,14.60
2018-06-07T01:10:54.460Z,14.60
2018-06-07T01:13:23.637Z,14.70
2018-06-07T01:15:51.830Z,14.50
2018-06-07T01:18:19.975Z,14.40
2018-06-07T01:20:48.169Z,14.20
2018-06-07T01:23:18.368Z,14.10
2018-06-07T01:25:47.581Z,14.00
2018-06-07T01:28:16.788Z,14.00
2018-06-07T01:30:51.356Z,13.90
2018-06-07T01:33:43.221Z,13.70
2018-06-07T01:36:11.402Z,13.70
2018-06-07T01:39:06.653Z,13.60
2018-06-07T01:41:34.814Z,13.50
2018-06-07T01:44:04.045Z,13.40
2018-06-07T01:46:32.278Z,13.40
2018-06-07T01:49:00.494Z,13.50
2018-06-07T01:51:28.712Z,13.50
2018-06-07T01:53:56.874Z,13.50
2018-06-07T01:56:25.110Z,13.50
2018-06-07T01:58:53.309Z,13.60
2018-06-07T02:01:21.537Z,13.50
2018-06-07T02:03:49.677Z,13.50
2018-06-07T02:06:17.862Z,13.40
2018-06-07T02:08:47.046Z,13.40
2018-06-07T02:11:15.224Z,13.30
2018-06-07T02:13:43.393Z,13.20
2018-06-07T02:16:11.574Z,13.10
2018-06-07T02:18:39.733Z,13.00
2018-06-07T02:21:07.929Z,13.00
2018-06-07T02:23:36.043Z,12.90
2018-06-07T02:26:04.300Z,12.90
2018-06-07T02:28:32.429Z,12.90
2018-06-07T02:31:00.616Z,13.20
2018-06-07T02:33:28.811Z,12.90
2018-06-07T02:35:59.013Z,12.80
2018-06-07T02:38:28.205Z,12.80
2018-06-07T02:40:56.417Z,12.80
2018-06-07T02:43:24.546Z,12.70
2018-06-07T02:45:52.766Z,12.60
2018-06-07T02:48:21.921Z,12.70
2018-06-07T02:50:50.112Z,12.50
2018-06-07T02:53:18.284Z,12.40
2018-06-07T02:55:46.450Z,12.20
2018-06-07T02:58:16.687Z,12.10
2018-06-07T03:00:44.874Z,12.00
2018-06-07T03:03:13.037Z,12.00
2018-06-07T03:05:41.150Z,11.90
2018-06-07T03:08:11.309Z,11.80
2018-06-07T03:10:39.505Z,11.70
2018-06-07T03:13:07.673Z,11.60
2018-06-07T03:15:36.896Z,11.70
2018-06-07T03:18:05.042Z,11.60
2018-06-07T03:20:33.204Z,11.70
2018-06-07T03:23:01.366Z,11.80
2018-06-07T03:25:29.569Z,11.50
2018-06-07T03:27:57.754Z,11.70
2018-06-07T03:30:26.922Z,11.80
2018-06-07T03:32:55.037Z,11.80
2018-06-07T03:35:24.213Z,11.90
2018-06-07T03:37:52.389Z,12.00
2018-06-07T03:40:20.563Z,12.10
2018-06-07T03:42:49.742Z,12.20
2018-06-07T03:45:17.913Z,12.20
2018-06-07T03:47:46.085Z,12.30
2018-06-07T03:50:14.261Z,12.60
2018-06-07T03:52:42.487Z,12.40
2018-06-07T03:55:10.636Z,12.40
2018-06-07T03:57:39.825Z,12.60
2018-06-07T04:00:07.977Z,12.60
2018-06-07T04:02:36.177Z,13.10
2018-06-07T04:05:05.390Z,12.90
2018-06-07T04:07:35.581Z,13.00
2018-06-07T04:10:03.758Z,13.00
2018-06-07T04:12:33.981Z,13.20
2018-06-07T04:15:02.088Z,13.30
2018-06-07T04:17:30.222Z,13.50
2018-06-07T04:19:58.389Z,13.70
2018-06-07T04:22:27.598Z,13.90
2018-06-07T04:24:55.753Z,13.90
2018-06-07T04:27:23.949Z,14.10
2018-06-07T04:29:52.105Z,14.10
2018-06-07T04:32:20.311Z,14.20
2018-06-07T04:34:50.505Z,14.30
2018-06-07T04:37:19.708Z,14.40
2018-06-07T04:39:47.899Z,14.50
2018-06-07T04:42:17.105Z,14.60
2018-06-07T04:44:47.311Z,14.70
2018-06-07T04:53:15.724Z,15.40
2018-06-07T04:55:56.901Z,15.60
2018-06-07T04:58:25.086Z,15.80
2018-06-07T05:00:59.548Z,15.90
2018-06-07T05:03:37.390Z,15.90
2018-06-07T05:09:06.805Z,15.90
2018-06-07T05:11:47.921Z,16.20
2018-06-07T05:14:17.147Z,16.60
2018-06-07T05:16:55.254Z,16.90
2018-06-07T05:19:39.601Z,17.20
2018-06-07T05:22:24.345Z,17.40
2018-06-07T05:25:02.877Z,17.70
2018-06-07T05:30:27.227Z,18.10
2018-06-07T05:33:08.945Z,18.40
2018-06-07T05:38:31.311Z,18.50
2018-06-07T05:41:17.910Z,18.70
2018-06-07T05:43:53.258Z,18.80
2018-06-07T06:00:50.190Z,19.90
2018-06-07T06:11:56.632Z,20.70
2018-06-07T06:17:21.592Z,21.20
2018-06-07T06:19:49.796Z,21.60
2018-06-07T06:25:12.557Z,21.80
2018-06-07T06:28:01.435Z,22.00
2018-06-07T06:30:34.021Z,22.20
2018-06-07T06:33:03.161Z,22.50
2018-06-07T06:35:47.542Z,22.50
2018-06-07T06:38:33.168Z,22.70
2018-06-07T06:41:06.975Z,22.90
2018-06-07T06:43:35.120Z,22.80
2018-06-07T06:46:03.282Z,22.90
2018-06-07T06:48:31.485Z,22.60
2018-06-07T06:50:59.614Z,22.00
2018-06-07T06:53:27.744Z,21.50
2018-06-07T06:55:55.857Z,21.30
2018-06-07T06:58:23.977Z,21.20
2018-06-07T07:00:52.120Z,21.10
2018-06-07T07:03:20.221Z,21.00
2018-06-07T07:05:48.340Z,21.00
2018-06-07T07:08:16.457Z,21.10
2018-06-07T07:10:44.612Z,21.20
2018-06-07T07:13:12.731Z,21.30
2018-06-07T07:15:40.862Z,21.30
2018-06-07T07:18:09.001Z,21.50
2018-06-07T07:20:37.120Z,21.60
2018-06-07T07:23:05.253Z,21.80
2018-06-07T07:25:33.393Z,21.90
2018-06-07T07:30:29.421Z,21.80
2018-06-07T07:32:57.539Z,21.60
2018-06-07T07:35:25.670Z,21.60
2018-06-07T07:37:53.782Z,21.70
2018-06-07T07:40:21.910Z,21.70
2018-06-07T07:45:17.922Z,21.30
2018-06-07T07:47:46.045Z,21.20
2018-06-07T07:50:14.173Z,21.10
2018-06-07T07:52:42.294Z,21.10
2018-06-07T07:55:10.852Z,21.10
2018-06-07T07:57:39.305Z,21.20
2018-06-07T08:00:07.873Z,21.20
2018-06-07T08:02:36.001Z,21.40
2018-06-07T08:05:04.425Z,21.50
2018-06-07T08:07:32.547Z,21.40
2018-06-07T08:10:00.683Z,21.20
2018-06-07T08:12:28.832Z,21.10
2018-06-07T08:14:56.972Z,21.10
2018-06-07T08:17:25.092Z,21.20
2018-06-07T08:19:53.237Z,21.10
2018-06-07T08:22:21.362Z,21.10
2018-06-07T08:24:49.480Z,21.20
2018-06-07T08:27:17.604Z,21.20
2018-06-07T08:29:45.738Z,21.10
2018-06-07T08:32:13.847Z,21.10
2018-06-07T08:34:41.949Z,21.20
2018-06-07T08:37:10.064Z,21.30
2018-06-07T08:39:38.214Z,21.40
2018-06-07T08:42:06.329Z,21.50
2018-06-07T08:44:34.472Z,21.70
2018-06-07T08:47:02.622Z,21.70
2018-06-07T08:49:30.748Z,21.60
2018-06-07T08:51:58.874Z,21.40
2018-06-07T08:54:26.989Z,21.20
2018-06-07T08:56:55.135Z,21.00
2018-06-07T08:59:23.253Z,20.80
2018-06-07T09:01:51.422Z,20.90
2018-06-07T09:04:19.565Z,21.20
2018-06-07T09:06:47.706Z,21.30
2018-06-07T09:09:15.830Z,21.20
2018-06-07T09:11:43.970Z,20.80
2018-06-07T09:14:13.109Z,20.60
2018-06-07T09:16:41.228Z,20.40
2018-06-07T09:19:09.345Z,20.40
2018-06-07T09:21:37.469Z,20.30
2018-06-07T09:24:05.574Z,20.30
2018-06-07T09:26:33.717Z,20.40
2018-06-07T09:29:01.833Z,20.50
2018-06-07T09:31:29.965Z,20.60
2018-06-07T09:33:58.084Z,20.70
2018-06-07T09:36:26.237Z,20.70
2018-06-07T09:38:54.353Z,20.90
2018-06-07T09:41:22.477Z,21.20
2018-06-07T09:43:50.587Z,21.50
2018-06-07T09:46:18.704Z,22.00
2018-06-07T09:48:46.809Z,22.60
2018-06-07T09:51:14.937Z,23.30
2018-06-07T09:53:43.053Z,24.00
2018-06-07T09:56:11.188Z,24.50
2018-06-07T09:58:39.316Z,25.00
2018-06-07T10:01:07.439Z,25.10
2018-06-07T10:03:35.573Z,25.20
2018-06-07T10:06:03.713Z,25.40
2018-06-07T10:08:31.870Z,25.50
2018-06-07T10:10:59.993Z,25.70
2018-06-07T10:13:28.108Z,26.00
2018-06-07T10:15:56.245Z,26.10
2018-06-07T10:18:24.367Z,26.10
2018-06-07T10:20:52.484Z,26.10
2018-06-07T10:23:20.743Z,26.20
2018-06-07T10:25:49.209Z,26.10
2018-06-07T10:28:17.750Z,26.20
2018-06-07T10:30:45.945Z,25.90
2018-06-07T10:33:14.118Z,25.20
2018-06-07T10:35:42.250Z,24.50
2018-06-07T10:38:10.376Z,24.10
2018-06-07T10:40:38.518Z,24.00
2018-06-07T10:43:06.655Z,24.40
2018-06-07T10:45:34.766Z,24.40
2018-06-07T10:48:02.899Z,24.20
2018-06-07T10:50:31.045Z,24.10
2018-06-07T10:52:59.156Z,24.00
2018-06-07T10:55:27.283Z,23.80
2018-06-07T10:57:55.446Z,23.70
2018-06-07T11:00:23.589Z,24.20
2018-06-07T11:02:51.728Z,24.90
2018-06-07T11:05:19.870Z,25.40
2018-06-07T11:07:48.009Z,25.60
2018-06-07T11:10:16.133Z,25.30
2018-06-07T11:12:44.280Z,24.80
2018-06-07T11:17:40.373Z,24.30
2018-06-07T11:20:08.499Z,24.30
2018-06-07T11:22:36.632Z,24.80
2018-06-07T11:25:04.777Z,24.80
2018-06-07T11:27:32.962Z,24.90
2018-06-07T11:30:01.084Z,25.30
2018-06-07T11:32:29.208Z,25.50
2018-06-07T11:34:57.388Z,25.40
2018-06-07T11:37:25.513Z,25.60
2018-06-07T11:39:53.648Z,26.10
2018-06-07T11:42:21.829Z,26.60
2018-06-07T11:44:49.960Z,26.90
2018-06-07T11:47:18.102Z,26.80
2018-06-07T11:49:46.237Z,27.00
2018-06-07T11:52:14.391Z,27.00
2018-06-07T11:54:42.514Z,27.20
2018-06-07T11:57:10.668Z,27.30
2018-06-07T11:59:38.841Z,26.90
2018-06-07T12:02:06.998Z,27.00
2018-06-07T12:04:35.242Z,27.10
2018-06-07T12:07:03.426Z,27.30
2018-06-07T12:09:31.557Z,27.50
2018-06-07T12:11:59.735Z,26.70
2018-06-07T12:14:27.864Z,26.30
2018-06-07T12:16:56.010Z,26.10
2018-06-07T12:19:24.142Z,26.00
2018-06-07T12:21:52.340Z,26.10
2018-06-07T12:24:20.501Z,26.40
2018-06-07T12:26:48.628Z,27.10
2018-06-07T12:29:16.772Z,27.00
2018-06-07T12:31:44.891Z,26.80
2018-06-07T12:34:13.029Z,26.80
2018-06-07T12:36:41.146Z,26.90
2018-06-07T12:39:09.280Z,26.70
2018-06-07T12:41:37.407Z,26.50
2018-06-07T12:46:33.883Z,26.50
2018-06-07T12:49:02.023Z,26.60
2018-06-07T12:51:30.180Z,26.70
2018-06-07T12:53:58.328Z,26.70
2018-06-07T12:56:26.456Z,26.80
2018-06-07T12:58:54.605Z,27.30
2018-06-07T13:01:22.740Z,27.60
2018-06-07T13:03:50.864Z,27.90
2018-06-07T13:06:18.982Z,28.40
2018-06-07T13:08:47.113Z,28.50
2018-06-07T13:11:15.281Z,28.20
2018-06-07T13:13:43.430Z,27.90
2018-06-07T13:16:11.553Z,27.80
2018-06-07T13:18:39.689Z,27.50
2018-06-07T13:21:07.826Z,27.20
2018-06-07T13:23:35.958Z,26.70
2018-06-07T13:26:04.078Z,26.60
2018-06-07T13:28:32.211Z,26.30
2018-06-07T13:31:00.328Z,26.10
2018-06-07T13:33:28.474Z,25.80
2018-06-07T13:35:56.605Z,25.40
2018-06-07T13:38:24.742Z,25.10
2018-06-07T13:40:52.865Z,25.20
2018-06-07T13:43:20.988Z,25.90
2018-06-07T13:45:49.139Z,26.80
2018-06-07T13:48:17.271Z,27.30
2018-06-07T13:50:45.452Z,27.90
2018-06-07T13:53:13.618Z,28.20
2018-06-07T13:55:41.761Z,28.30
2018-06-07T13:58:09.908Z,27.90
2018-06-07T14:00:38.040Z,27.60
2018-06-07T14:03:06.213Z,27.10
2018-06-07T14:05:34.364Z,26.80
2018-06-07T14:08:02.484Z,26.90
2018-06-07T14:10:30.698Z,26.90
2018-06-07T14:12:58.891Z,27.00
2018-06-07T14:15:27.033Z,27.40
2018-06-07T14:17:55.187Z,27.50
2018-06-07T14:20:23.328Z,27.60
2018-06-07T14:22:51.466Z,27.70
2018-06-07T14:25:19.628Z,27.90
2018-06-07T14:27:48.606Z,28.00
2018-06-07T14:30:16.774Z,28.00
2018-06-07T14:32:44.903Z,27.80
2018-06-07T14:35:13.035Z,27.50
2018-06-07T14:37:41.161Z,27.20
2018-06-07T14:40:09.293Z,26.70
2018-06-07T14:42:37.445Z,26.40
2018-06-07T14:45:05.638Z,26.00
2018-06-07T14:47:33.760Z,25.80
2018-06-07T14:50:01.916Z,25.70
2018-06-07T14:52:30.043Z,25.80
2018-06-07T14:54:58.185Z,25.90
2018-06-07T14:57:26.313Z,26.00
2018-06-07T14:59:54.472Z,25.70
2018-06-07T15:02:22.638Z,25.60
2018-06-07T15:04:50.842Z,25.20
2018-06-07T15:07:18.967Z,24.90
2018-06-07T15:09:47.154Z,24.60
2018-06-07T15:12:15.289Z,24.50
2018-06-07T15:14:43.452Z,24.50
2018-06-07T15:17:11.590Z,24.50
2018-06-07T15:19:39.724Z,24.60
2018-06-07T15:22:07.868Z,24.70
2018-06-07T15:24:36.001Z,24.80
2018-06-07T15:27:04.194Z,24.90
2018-06-07T15:29:32.321Z,25.20
2018-06-07T15:32:00.460Z,25.40
2018-06-07T15:34:28.673Z,25.50
2018-06-07T15:36:56.809Z,25.30
2018-06-07T15:39:24.946Z,25.20
2018-06-07T15:41:53.123Z,25.10
2018-06-07T15:44:21.382Z,25.10
2018-06-07T15:47:14.426Z,25.00
2018-06-07T15:49:42.605Z,25.00
2018-06-07T15:52:10.737Z,25.10
2018-06-07T15:54:38.892Z,25.20
2018-06-07T15:57:07.012Z,25.40
2018-06-07T15:59:35.145Z,25.70
2018-06-07T16:02:03.291Z,25.80
2018-06-07T16:04:31.440Z,25.70
2018-06-07T16:06:59.605Z,25.20
2018-06-07T16:09:27.748Z,24.90
2018-06-07T16:11:55.903Z,24.50
2018-06-07T16:14:24.105Z,24.00
2018-06-07T16:16:52.252Z,23.60
2018-06-07T16:19:20.413Z,23.30
2018-06-07T16:21:48.541Z,23.10
2018-06-07T16:24:16.689Z,22.90
2018-06-07T16:26:44.940Z,22.60
2018-06-07T16:29:13.177Z,22.30
2018-06-07T16:31:41.353Z,22.00
2018-06-07T16:34:09.477Z,21.90
2018-06-07T16:36:37.688Z,21.50
2018-06-07T16:39:07.898Z,21.20
2018-06-07T16:41:36.287Z,21.10
2018-06-07T16:44:04.482Z,20.80
2018-06-07T16:46:32.638Z,20.70
2018-06-07T16:49:00.843Z,20.70
2018-06-07T16:51:29.076Z,20.80
2018-06-07T16:53:57.164Z,20.80
2018-06-07T16:56:25.302Z,20.70
2018-06-07T16:58:53.429Z,20.70
2018-06-07T17:01:21.630Z,20.50
2018-06-07T17:03:49.738Z,20.20
2018-06-07T17:06:17.852Z,19.90
2018-06-07T17:08:46.012Z,19.50
2018-06-07T17:11:14.164Z,19.30
2018-06-07T17:13:42.277Z,19.00
2018-06-07T17:16:10.405Z,18.80
2018-06-07T17:18:38.529Z,18.80
2018-06-07T17:21:06.693Z,18.60
2018-06-07T17:23:34.797Z,18.50
2018-06-07T17:26:02.913Z,18.50
2018-06-07T17:28:31.051Z,18.50
2018-06-07T17:30:59.290Z,18.50
2018-06-07T17:33:27.504Z,18.30
2018-06-07T17:35:55.663Z,18.20
2018-06-07T17:38:23.841Z,17.70
2018-06-07T17:40:52.027Z,18.00
2018-06-07T17:43:20.169Z,17.90
2018-06-07T17:45:48.348Z,17.90
2018-06-07T17:48:16.516Z,18.00
2018-06-07T17:50:44.737Z,18.00
2018-06-07T17:53:12.910Z,18.10
2018-06-07T17:55:41.064Z,17.90
2018-06-07T17:58:09.271Z,17.90
2018-06-07T18:00:37.431Z,17.90
2018-06-07T18:03:05.613Z,17.90
2018-06-07T18:05:33.754Z,17.90
2018-06-07T18:08:01.940Z,17.90
2018-06-07T18:10:30.187Z,17.80
2018-06-07T18:12:58.367Z,17.70
2018-06-07T18:15:26.428Z,17.90
2018-06-07T18:17:54.661Z,17.70
2018-06-07T18:20:22.786Z,17.70
2018-06-07T18:22:51.076Z,17.70
2018-06-07T18:25:19.252Z,17.70
2018-06-07T18:27:47.413Z,17.60
2018-06-07T18:30:15.609Z,17.60
2018-06-07T18:32:43.768Z,17.30
2018-06-07T18:35:11.926Z,17.60
2018-06-07T18:37:40.045Z,17.60
2018-06-07T18:40:08.158Z,17.50
2018-06-07T18:42:36.276Z,17.60
2018-06-07T18:45:04.420Z,17.50
2018-06-07T18:47:32.572Z,17.50
2018-06-07T18:50:00.669Z,17.50
2018-06-07T18:52:28.779Z,17.30
2018-06-07T18:57:24.896Z,17.20
2018-06-07T18:59:53.006Z,17.30
2018-06-07T19:02:21.121Z,17.20
2018-06-07T19:04:49.233Z,17.30
2018-06-07T19:07:22.745Z,17.30
2018-06-07T19:09:56.725Z,17.30
2018-06-07T19:12:24.905Z,17.30
2018-06-07T19:14:59.489Z,17.20
2018-06-07T19:17:27.600Z,17.20
2018-06-07T19:20:01.104Z,17.20
2018-06-07T19:22:29.224Z,17.40
2018-06-07T19:25:02.828Z,17.50
2018-06-07T19:27:30.980Z,17.40
2018-06-07T19:29:59.109Z,17.40
2018-06-07T19:32:32.576Z,17.30
2018-06-07T19:35:06.812Z,17.30
2018-06-07T19:37:34.973Z,17.20
2018-06-07T19:40:08.549Z,17.30
2018-06-07T19:42:36.696Z,17.20
2018-06-07T19:45:04.863Z,17.50
2018-06-07T19:47:32.984Z,17.20
2018-06-07T19:50:01.123Z,17.20
2018-06-07T19:52:29.214Z,17.30
2018-06-07T19:54:57.429Z,17.10
2018-06-07T19:57:25.609Z,17.50
2018-06-07T19:59:53.781Z,17.20
2018-06-07T20:02:22.012Z,17.20
2018-06-07T20:04:50.146Z,17.20
2018-06-07T20:07:18.329Z,17.10
2018-06-07T20:09:46.480Z,17.20
2018-06-07T20:12:14.644Z,17.20
2018-06-07T20:14:43.196Z,17.10
2018-06-07T20:17:11.404Z,17.10
2018-06-07T20:19:39.588Z,17.10
2018-06-07T20:22:07.756Z,17.00
2018-06-07T20:24:35.971Z,16.90
2018-06-07T20:27:04.100Z,16.80
2018-06-07T20:29:32.280Z,16.80
2018-06-07T20:32:00.436Z,17.00
2018-06-07T20:34:28.651Z,16.80
2018-06-07T20:36:56.801Z,16.80
2018-06-07T20:39:25.048Z,16.70
2018-06-07T20:41:53.245Z,16.60
2018-06-07T20:44:21.441Z,16.70
2018-06-07T20:46:49.621Z,16.80
2018-06-07T20:49:17.780Z,16.70
2018-06-07T20:51:45.944Z,16.80
2018-06-07T20:54:14.128Z,16.70
2018-06-07T20:56:42.292Z,16.50
2018-06-07T20:59:11.421Z,16.50
2018-06-07T21:01:39.560Z,16.50
2018-06-07T21:04:07.744Z,16.80
2018-06-07T21:06:35.957Z,16.20
2018-06-07T21:09:06.524Z,16.10
2018-06-07T21:11:34.716Z,16.40
2018-06-07T21:14:02.924Z,16.50
2018-06-07T21:16:31.064Z,16.20
2018-06-07T21:18:59.281Z,16.30
2018-06-07T21:21:27.418Z,16.10
2018-06-07T21:23:55.612Z,16.20
2018-06-07T21:26:23.776Z,16.20
2018-06-07T21:28:51.987Z,16.20
2018-06-07T21:33:48.107Z,16.00
2018-06-07T21:36:16.280Z,16.10
2018-06-07T21:38:44.525Z,15.90
2018-06-07T21:41:12.713Z,15.90
2018-06-07T21:43:40.910Z,15.70
2018-06-07T21:46:09.061Z,15.70
2018-06-07T21:48:37.258Z,15.90
2018-06-07T21:51:05.471Z,15.70
2018-06-07T21:53:33.697Z,15.70
2018-06-07T21:56:01.870Z,15.60
2018-06-07T21:58:30.108Z,15.80
2018-06-07T22:00:58.304Z,15.60
2018-06-07T22:03:26.489Z,15.50
2018-06-07T22:05:54.656Z,15.40
2018-06-07T22:08:22.913Z,15.50
2018-06-07T22:10:51.125Z,15.70
2018-06-07T22:13:19.372Z,15.70
2018-06-07T22:15:47.575Z,15.50
2018-06-07T22:18:15.728Z,15.60
2018-06-07T22:20:43.917Z,15.60
2018-06-07T22:23:12.102Z,15.30
2018-06-07T22:25:40.272Z,15.30
2018-06-07T22:28:08.429Z,15.20
2018-06-07T22:30:36.616Z,15.20
2018-06-07T22:33:04.924Z,15.10
2018-06-07T22:35:33.070Z,15.10
2018-06-07T22:38:01.233Z,15.00
2018-06-07T22:40:29.620Z,15.30
2018-06-07T22:42:57.772Z,15.10
2018-06-07T22:45:25.969Z,15.00
2018-06-07T22:47:54.132Z,15.20
2018-06-07T22:50:22.312Z,14.60
2018-06-07T22:52:50.471Z,14.70
2018-06-07T22:55:18.662Z,14.80
2018-06-07T22:57:46.836Z,14.70
2018-06-07T23:00:15.812Z,14.80
2018-06-07T23:02:51.196Z,14.90
2018-06-07T23:05:19.555Z,14.90
2018-06-07T23:07:47.716Z,14.60
2018-06-07T23:10:15.937Z,14.70
2018-06-07T23:12:44.063Z,14.80
2018-06-07T23:15:12.245Z,14.50
2018-06-07T23:17:40.405Z,14.50
2018-06-07T23:20:08.589Z,14.60
2018-06-07T23:22:36.766Z,14.50
2018-06-07T23:25:04.986Z,14.60
2018-06-07T23:27:33.109Z,14.70
2018-06-07T23:30:01.329Z,14.60
2018-06-07T23:32:29.444Z,14.70
2018-06-07T23:34:57.644Z,14.50
2018-06-07T23:37:25.810Z,14.60
2018-06-07T23:39:53.999Z,14.40
2018-06-07T23:42:22.225Z,14.00
2018-06-07T23:44:50.372Z,14.30
2018-06-07T23:47:18.493Z,14.10
2018-06-07T23:49:46.684Z,14.10
2018-06-07T23:52:14.919Z,14.20
2018-06-07T23:54:43.145Z,14.00
2018-06-07T23:57:11.305Z,14.00
2018-06-07T23:59:39.476Z,14.40
